createdAt,value
2019-04-27T00:00:03.627Z,74.64
2019-04-27T00:02:55.838Z,74.87
2019-04-27T00:05:32.267Z,75.55
2019-04-27T00:08:03.758Z,75.43
2019-04-27T00:10:33.785Z,75.38
2019-04-27T00:13:05.663Z,75.32
2019-04-27T00:15:36.717Z,75.17
2019-04-27T00:18:09.410Z,75.40
2019-04-27T00:20:38.510Z,75.25
2019-04-27T00:23:08.555Z,75.24
2019-04-27T00:25:36.965Z,74.57
2019-04-27T00:28:05.608Z,74.81
2019-04-27T00:30:35.610Z,74.59
2019-04-27T00:33:05.424Z,74.61
2019-04-27T00:35:38.512Z,75.22
2019-04-27T00:38:17.744Z,74.84
2019-04-27T00:40:47.775Z,74.69
2019-04-27T00:43:16.166Z,75.15
2019-04-27T00:45:44.567Z,74.76
2019-04-27T00:48:13.330Z,74.92
2019-04-27T00:50:41.842Z,74.67
2019-04-27T00:53:10.235Z,74.80
2019-04-27T00:55:40.288Z,74.82
2019-04-27T00:58:19.085Z,74.20
2019-04-27T01:00:58.043Z,74.29
2019-04-27T01:03:30.843Z,74.60
2019-04-27T01:05:59.482Z,74.35
2019-04-27T01:08:27.887Z,74.57
2019-04-27T01:10:56.388Z,74.45
2019-04-27T01:13:24.794Z,74.39
2019-04-27T01:15:54.155Z,74.30
2019-04-27T01:18:22.604Z,74.53
2019-04-27T01:20:50.994Z,74.12
2019-04-27T01:23:19.415Z,74.18
2019-04-27T01:26:05.641Z,74.12
2019-04-27T01:28:35.671Z,74.32
2019-04-27T01:31:05.746Z,73.84
2019-04-27T01:33:34.150Z,73.97
2019-04-27T01:36:02.560Z,73.77
2019-04-27T01:38:30.965Z,73.73
2019-04-27T01:41:00.613Z,73.99
2019-04-27T01:43:30.250Z,73.85
2019-04-27T01:46:01.013Z,73.68
2019-04-27T01:48:30.560Z,74.03
2019-04-27T01:50:59.417Z,73.85
2019-04-27T01:53:28.912Z,73.67
2019-04-27T01:55:59.217Z,73.72
2019-04-27T01:58:29.315Z,74.09
2019-04-27T02:01:11.381Z,74.63
2019-04-27T02:03:41.415Z,74.38
2019-04-27T02:06:09.968Z,75.22
2019-04-27T02:08:40.236Z,74.67
2019-04-27T02:11:09.235Z,75.45
2019-04-27T02:13:38.901Z,75.76
2019-04-27T02:16:09.000Z,76.15
2019-04-27T02:18:39.634Z,76.42
2019-04-27T02:21:09.118Z,77.06
2019-04-27T02:23:39.279Z,76.92
2019-04-27T02:26:08.619Z,76.93
2019-04-27T02:28:47.459Z,77.22
2019-04-27T02:31:20.413Z,77.30
2019-04-27T02:33:53.285Z,77.23
2019-04-27T02:36:21.759Z,77.77
2019-04-27T02:38:50.173Z,77.73
2019-04-27T02:41:19.898Z,78.00
2019-04-27T02:43:50.125Z,77.94
2019-04-27T02:46:20.005Z,77.99
2019-04-27T02:48:58.596Z,78.34
2019-04-27T02:51:36.516Z,78.39
2019-04-27T02:54:05.073Z,78.37
2019-04-27T02:56:33.498Z,79.04
2019-04-27T02:59:01.891Z,78.63
2019-04-27T03:01:31.936Z,78.07
2019-04-27T03:04:00.681Z,78.79
2019-04-27T03:06:29.968Z,78.72
2019-04-27T03:09:00.425Z,78.77
2019-04-27T03:11:30.715Z,78.49
2019-04-27T03:14:29.470Z,78.77
2019-04-27T03:17:04.780Z,78.68
2019-04-27T03:19:40.511Z,78.67
2019-04-27T03:22:19.155Z,78.46
2019-04-27T03:25:00.644Z,78.82
2019-04-27T03:27:40.636Z,78.53
2019-04-27T03:30:12.516Z,78.32
2019-04-27T03:32:43.195Z,78.78
2019-04-27T03:35:13.114Z,78.81
2019-04-27T03:37:42.196Z,78.55
2019-04-27T03:40:10.810Z,78.16
2019-04-27T03:42:40.847Z,78.29
2019-04-27T03:45:10.763Z,78.36
2019-04-27T03:47:40.765Z,78.72
2019-04-27T03:50:11.577Z,78.68
2019-04-27T03:52:41.711Z,78.56
2019-04-27T03:55:11.814Z,78.70
2019-04-27T03:57:50.470Z,78.54
2019-04-27T04:00:30.161Z,78.38
2019-04-27T04:03:00.578Z,78.38
2019-04-27T04:05:30.112Z,78.37
2019-04-27T04:08:00.502Z,78.64
2019-04-27T04:10:30.613Z,78.46
2019-04-27T04:13:01.641Z,78.23
2019-04-27T04:15:31.911Z,78.34
2019-04-27T04:18:00.333Z,78.03
2019-04-27T04:20:30.471Z,77.97
2019-04-27T04:23:00.176Z,77.92
2019-04-27T04:25:32.668Z,78.09
2019-04-27T04:28:00.635Z,78.36
2019-04-27T04:30:30.236Z,78.56
2019-04-27T04:32:59.909Z,78.45
2019-04-27T04:35:32.528Z,77.99
2019-04-27T04:38:00.267Z,78.20
2019-04-27T04:40:30.832Z,77.95
2019-04-27T04:43:03.443Z,77.93
2019-04-27T04:45:35.738Z,77.88
2019-04-27T04:48:05.788Z,78.15
2019-04-27T04:50:34.267Z,77.90
2019-04-27T04:53:02.683Z,78.05
2019-04-27T04:55:31.085Z,77.53
2019-04-27T04:57:59.492Z,77.84
2019-04-27T05:00:29.870Z,77.83
2019-04-27T05:02:59.515Z,78.04
2019-04-27T05:05:29.286Z,77.92
2019-04-27T05:07:58.762Z,77.99
2019-04-27T05:10:28.801Z,78.18
2019-04-27T05:12:59.075Z,77.56
2019-04-27T05:15:29.211Z,77.69
2019-04-27T05:17:59.207Z,77.51
2019-04-27T05:20:29.558Z,77.36
2019-04-27T05:22:59.417Z,77.05
2019-04-27T05:25:28.700Z,77.27
2019-04-27T05:27:57.084Z,76.89
2019-04-27T05:30:25.478Z,76.88
2019-04-27T05:32:53.891Z,77.30
2019-04-27T05:35:22.276Z,76.67
2019-04-27T05:37:50.740Z,77.53
2019-04-27T05:40:19.133Z,76.92
2019-04-27T05:42:48.917Z,76.65
2019-04-27T05:45:43.068Z,76.78
2019-04-27T05:48:13.165Z,76.71
2019-04-27T05:50:45.635Z,76.76
2019-04-27T05:53:11.707Z,76.89
2019-04-27T05:55:40.103Z,76.47
2019-04-27T05:58:09.334Z,76.83
2019-04-27T06:00:39.371Z,76.62
2019-04-27T06:03:09.062Z,76.97
2019-04-27T06:05:39.109Z,77.16
2019-04-27T06:08:08.741Z,76.88
2019-04-27T06:10:38.685Z,76.80
2019-04-27T06:13:08.447Z,76.81
2019-04-27T06:15:38.854Z,76.60
2019-04-27T06:18:07.273Z,76.69
2019-04-27T06:20:48.378Z,75.99
2019-04-27T06:23:05.773Z,76.04
2019-04-27T06:25:34.193Z,75.82
2019-04-27T06:28:02.563Z,75.07
2019-04-27T06:30:30.954Z,74.93
2019-04-27T06:32:59.526Z,74.75
2019-04-27T06:35:28.845Z,74.72
2019-04-27T06:37:58.604Z,74.68
2019-04-27T06:40:28.931Z,74.60
2019-04-27T06:42:57.167Z,74.21
2019-04-27T06:45:25.582Z,74.32
2019-04-27T06:47:53.985Z,74.30
2019-04-27T06:50:22.373Z,73.76
2019-04-27T06:52:50.772Z,73.83
2019-04-27T06:55:19.155Z,73.62
2019-04-27T07:03:59.670Z,73.01
2019-04-27T07:06:28.623Z,72.44
2019-04-27T07:08:57.033Z,72.24
2019-04-27T07:11:25.447Z,72.35
2019-04-27T07:13:53.844Z,71.93
2019-04-27T07:16:22.234Z,71.48
2019-04-27T07:18:50.624Z,70.96
2019-04-27T07:21:24.288Z,70.89
2019-04-27T07:23:59.412Z,70.80
2019-04-27T07:26:30.195Z,70.83
2019-04-27T07:28:59.631Z,71.05
2019-04-27T07:31:29.496Z,70.09
2019-04-27T07:33:59.512Z,69.66
2019-04-27T07:36:29.013Z,70.01
2019-04-27T07:38:59.662Z,69.71
2019-04-27T07:41:29.179Z,69.18
2019-04-27T07:44:02.097Z,69.05
2019-04-27T07:46:31.830Z,68.60
2019-04-27T07:49:00.197Z,68.17
2019-04-27T07:51:33.644Z,68.12
2019-04-27T07:53:58.994Z,66.90
2019-04-27T07:56:29.095Z,67.18
2019-04-27T07:58:59.394Z,67.86
2019-04-27T08:01:29.408Z,67.84
2019-04-27T08:03:59.080Z,67.78
2019-04-27T08:06:28.943Z,68.34
2019-04-27T08:08:59.178Z,67.70
2019-04-27T08:11:29.250Z,67.77
2019-04-27T08:13:58.799Z,67.40
2019-04-27T08:16:29.099Z,66.89
2019-04-27T08:18:59.809Z,67.40
2019-04-27T08:21:28.910Z,67.32
2019-04-27T08:23:58.609Z,67.44
2019-04-27T08:26:28.974Z,67.44
2019-04-27T08:28:59.012Z,67.45
2019-04-27T08:31:29.300Z,67.35
2019-04-27T08:33:58.285Z,67.18
2019-04-27T08:36:28.909Z,66.85
2019-04-27T08:38:58.861Z,66.34
2019-04-27T08:41:29.474Z,66.78
2019-04-27T08:43:58.754Z,67.97
2019-04-27T08:46:28.631Z,69.51
2019-04-27T08:48:58.717Z,70.89
2019-04-27T08:51:29.008Z,73.66
2019-04-27T08:53:59.000Z,73.62
2019-04-27T08:56:27.485Z,74.79
2019-04-27T08:58:55.883Z,76.70
2019-04-27T09:01:25.245Z,76.51
2019-04-27T09:03:53.638Z,77.81
2019-04-27T09:06:22.341Z,78.27
2019-04-27T09:08:52.383Z,77.27
2019-04-27T09:11:22.412Z,75.10
2019-04-27T09:14:01.601Z,76.56
2019-04-27T09:16:31.653Z,76.14
2019-04-27T09:19:10.681Z,77.39
2019-04-27T09:22:10.325Z,76.55
2019-04-27T09:24:29.227Z,76.17
2019-04-27T09:26:59.508Z,75.43
2019-04-27T09:29:29.591Z,75.90
2019-04-27T09:31:59.607Z,76.49
2019-04-27T09:34:28.178Z,76.24
2019-04-27T09:36:56.716Z,76.42
2019-04-27T09:39:26.470Z,74.49
2019-04-27T09:41:57.020Z,71.37
2019-04-27T09:44:26.696Z,72.30
2019-04-27T09:46:56.079Z,72.78
2019-04-27T09:49:26.258Z,69.18
2019-04-27T09:51:55.715Z,70.11
2019-04-27T09:54:24.154Z,70.58
2019-04-27T09:56:52.544Z,70.17
2019-04-27T09:59:20.975Z,70.88
2019-04-27T10:01:49.369Z,69.95
2019-04-27T10:04:17.756Z,67.32
2019-04-27T10:06:48.582Z,68.03
2019-04-27T10:09:16.268Z,68.53
2019-04-27T10:11:44.657Z,66.19
2019-04-27T10:14:13.049Z,67.42
2019-04-27T10:16:41.442Z,63.00
2019-04-27T10:19:09.834Z,65.62
2019-04-27T10:21:38.305Z,65.12
2019-04-27T10:24:06.770Z,64.81
2019-04-27T10:26:36.200Z,63.88
2019-04-27T10:29:06.197Z,63.70
2019-04-27T10:31:34.763Z,61.52
2019-04-27T10:34:03.150Z,60.68
2019-04-27T10:36:40.636Z,60.80
2019-04-27T10:39:13.458Z,59.98
2019-04-27T10:41:42.117Z,59.81
2019-04-27T10:44:10.660Z,59.15
2019-04-27T10:46:39.123Z,59.10
2019-04-27T10:49:07.955Z,58.55
2019-04-27T10:51:36.495Z,58.77
2019-04-27T10:54:06.829Z,58.75
2019-04-27T10:56:36.117Z,57.82
2019-04-27T10:59:06.521Z,56.91
2019-04-27T11:01:36.055Z,55.47
2019-04-27T11:04:09.594Z,55.48
2019-04-27T11:06:45.761Z,55.53
2019-04-27T11:09:16.201Z,56.14
2019-04-27T11:11:46.310Z,55.93
2019-04-27T11:14:15.950Z,55.76
2019-04-27T11:16:45.945Z,55.66
2019-04-27T11:19:16.730Z,55.24
2019-04-27T11:21:44.784Z,55.61
2019-04-27T11:24:13.186Z,55.26
2019-04-27T11:26:41.574Z,54.55
2019-04-27T11:29:09.982Z,53.53
2019-04-27T11:31:38.529Z,54.28
2019-04-27T11:34:06.985Z,53.49
2019-04-27T11:36:37.007Z,53.10
2019-04-27T11:39:08.467Z,52.92
2019-04-27T11:41:36.858Z,52.72
2019-04-27T11:44:05.244Z,52.38
2019-04-27T11:46:33.681Z,53.08
2019-04-27T11:49:02.066Z,52.15
2019-04-27T11:51:30.448Z,50.42
2019-04-27T11:53:58.832Z,49.88
2019-04-27T11:56:27.491Z,50.53
2019-04-27T11:58:56.102Z,48.46
2019-04-27T12:01:24.553Z,49.70
2019-04-27T12:03:52.936Z,49.47
2019-04-27T12:06:21.315Z,49.42
2019-04-27T12:08:49.709Z,49.48
2019-04-27T12:11:18.089Z,49.04
2019-04-27T12:13:46.493Z,48.81
2019-04-27T12:16:15.645Z,48.20
2019-04-27T12:18:48.863Z,48.12
2019-04-27T12:21:15.162Z,48.07
2019-04-27T12:23:43.556Z,46.42
2019-04-27T12:26:13.584Z,46.12
2019-04-27T12:28:52.561Z,46.47
2019-04-27T12:31:25.840Z,46.51
2019-04-27T12:33:55.922Z,45.30
2019-04-27T12:36:25.810Z,45.85
2019-04-27T12:38:54.356Z,46.33
2019-04-27T12:41:22.729Z,45.65
2019-04-27T12:43:51.106Z,45.21
2019-04-27T12:46:19.496Z,46.05
2019-04-27T12:48:47.947Z,46.48
2019-04-27T12:51:16.403Z,45.97
2019-04-27T12:53:52.847Z,48.25
2019-04-27T12:56:21.089Z,50.20
2019-04-27T12:58:54.022Z,50.27
2019-04-27T13:01:27.065Z,51.21
2019-04-27T13:03:58.926Z,52.72
2019-04-27T13:06:25.657Z,54.93
2019-04-27T13:08:55.703Z,55.26
2019-04-27T13:11:24.302Z,56.08
2019-04-27T13:13:52.700Z,55.41
2019-04-27T13:16:21.085Z,53.71
2019-04-27T13:18:49.468Z,51.76
2019-04-27T13:21:20.789Z,51.25
2019-04-27T13:24:00.832Z,50.46
2019-04-27T13:26:18.076Z,49.79
2019-04-27T13:28:46.774Z,49.45
2019-04-27T13:31:15.692Z,49.18
2019-04-27T13:33:44.156Z,49.97
2019-04-27T13:36:12.568Z,50.23
2019-04-27T13:38:40.956Z,50.32
2019-04-27T13:41:10.021Z,49.28
2019-04-27T13:43:39.243Z,49.88
2019-04-27T13:46:09.711Z,49.62
2019-04-27T13:48:56.246Z,48.95
2019-04-27T13:51:41.160Z,49.50
2019-04-27T13:54:18.743Z,47.92
2019-04-27T13:56:39.652Z,47.93
2019-04-27T13:59:08.109Z,47.70
2019-04-27T14:01:36.571Z,47.26
2019-04-27T14:04:06.866Z,47.57
2019-04-27T14:06:35.195Z,47.27
2019-04-27T14:09:05.091Z,47.75
2019-04-27T14:11:33.494Z,47.50
2019-04-27T14:14:01.961Z,46.69
2019-04-27T14:16:30.363Z,46.88
2019-04-27T14:18:59.434Z,46.70
2019-04-27T14:21:29.528Z,47.08
2019-04-27T14:23:58.616Z,47.15
2019-04-27T14:26:28.458Z,47.61
2019-04-27T14:28:58.338Z,48.22
2019-04-27T14:31:26.826Z,48.62
2019-04-27T14:33:55.204Z,48.07
2019-04-27T14:36:23.597Z,47.74
2019-04-27T14:38:51.987Z,48.88
2019-04-27T14:41:20.396Z,51.58
2019-04-27T14:44:05.027Z,54.93
2019-04-27T14:46:18.859Z,55.77
2019-04-27T14:48:47.246Z,57.42
2019-04-27T14:51:15.627Z,57.18
2019-04-27T14:53:44.014Z,57.11
2019-04-27T14:56:12.395Z,56.28
2019-04-27T14:58:40.789Z,55.04
2019-04-27T15:01:09.167Z,54.35
2019-04-27T15:03:37.544Z,54.16
2019-04-27T15:06:05.941Z,52.44
2019-04-27T15:08:34.330Z,50.08
2019-04-27T15:11:04.175Z,47.76
2019-04-27T15:13:32.834Z,46.83
2019-04-27T15:16:02.604Z,46.11
2019-04-27T15:18:34.659Z,46.18
2019-04-27T15:21:03.755Z,46.24
2019-04-27T15:23:32.308Z,46.14
2019-04-27T15:26:00.696Z,45.63
2019-04-27T15:28:32.054Z,45.12
2019-04-27T15:31:02.113Z,45.37
2019-04-27T15:33:51.459Z,45.56
2019-04-27T15:36:23.073Z,45.26
2019-04-27T15:39:09.669Z,45.38
2019-04-27T15:41:39.755Z,45.44
2019-04-27T15:44:09.388Z,45.71
2019-04-27T15:46:39.072Z,45.03
2019-04-27T15:49:11.274Z,45.52
2019-04-27T15:51:38.278Z,45.43
2019-04-27T15:54:06.786Z,45.62
2019-04-27T15:56:35.528Z,45.92
2019-04-27T15:59:05.425Z,45.76
2019-04-27T16:01:35.708Z,46.23
2019-04-27T16:04:07.694Z,46.42
2019-04-27T16:06:34.544Z,46.09
2019-04-27T16:09:02.927Z,46.25
2019-04-27T16:11:31.339Z,46.68
2019-04-27T16:14:03.012Z,46.44
2019-04-27T16:16:33.471Z,46.67
2019-04-27T16:19:03.621Z,46.68
2019-04-27T16:21:31.596Z,46.60
2019-04-27T16:24:00.048Z,46.57
2019-04-27T16:26:28.595Z,46.57
2019-04-27T16:28:58.102Z,46.48
2019-04-27T16:31:31.465Z,46.17
2019-04-27T16:33:59.146Z,46.01
2019-04-27T16:36:26.705Z,46.34
2019-04-27T16:38:56.734Z,46.49
2019-04-27T16:41:25.188Z,46.74
2019-04-27T16:43:53.646Z,46.36
2019-04-27T16:46:22.115Z,46.07
2019-04-27T16:48:50.506Z,46.09
2019-04-27T16:51:18.882Z,45.88
2019-04-27T16:53:47.579Z,45.73
2019-04-27T16:56:18.577Z,44.66
2019-04-27T16:58:51.111Z,43.94
2019-04-27T17:01:20.329Z,44.30
2019-04-27T17:03:48.718Z,43.32
2019-04-27T17:06:19.097Z,43.14
2019-04-27T17:08:49.465Z,44.18
2019-04-27T17:11:19.546Z,44.32
2019-04-27T17:13:51.986Z,44.57
2019-04-27T17:16:31.222Z,44.40
2019-04-27T17:19:04.940Z,44.57
2019-04-27T17:21:28.886Z,44.86
2019-04-27T17:24:02.807Z,45.23
2019-04-27T17:26:29.135Z,45.62
2019-04-27T17:29:11.083Z,45.44
2019-04-27T17:31:38.165Z,45.57
2019-04-27T17:34:08.174Z,45.90
2019-04-27T17:36:38.506Z,46.15
2019-04-27T17:39:10.643Z,45.85
2019-04-27T17:41:42.141Z,45.98
2019-04-27T17:44:12.670Z,46.24
2019-04-27T17:46:42.743Z,46.51
2019-04-27T17:49:09.445Z,47.09
2019-04-27T17:51:42.957Z,47.03
2019-04-27T17:54:11.363Z,47.42
2019-04-27T17:56:48.255Z,47.56
2019-04-27T17:59:11.978Z,47.94
2019-04-27T18:01:38.865Z,48.29
2019-04-27T18:04:10.407Z,48.23
2019-04-27T18:06:39.038Z,48.56
2019-04-27T18:09:09.842Z,48.50
2019-04-27T18:11:38.501Z,48.85
2019-04-27T18:14:11.146Z,49.22
2019-04-27T18:16:38.047Z,49.17
2019-04-27T18:19:11.239Z,49.44
2019-04-27T18:21:39.858Z,48.99
2019-04-27T18:24:09.879Z,51.76
2019-04-27T18:26:49.258Z,55.38
2019-04-27T18:29:12.725Z,57.74
2019-04-27T18:31:41.111Z,60.46
2019-04-27T18:34:15.241Z,61.63
2019-04-27T18:36:43.896Z,61.01
2019-04-27T18:39:13.450Z,61.15
2019-04-27T18:41:44.428Z,62.89
2019-04-27T18:44:11.194Z,63.14
2019-04-27T18:46:39.818Z,64.72
2019-04-27T18:49:12.553Z,65.64
2019-04-27T18:51:42.575Z,67.13
2019-04-27T18:54:10.969Z,66.91
2019-04-27T18:56:41.581Z,66.91
2019-04-27T18:59:09.577Z,66.37
2019-04-27T19:01:37.960Z,66.54
2019-04-27T19:04:08.539Z,65.93
2019-04-27T19:06:36.467Z,65.87
2019-04-27T19:09:08.314Z,64.89
2019-04-27T19:11:38.247Z,65.65
2019-04-27T19:14:08.341Z,65.56
2019-04-27T19:16:38.388Z,65.63
2019-04-27T19:19:08.734Z,65.80
2019-04-27T19:21:39.113Z,67.35
2019-04-27T19:24:08.862Z,66.64
2019-04-27T19:26:48.513Z,67.09
2019-04-27T19:29:18.943Z,68.41
2019-04-27T19:31:54.657Z,70.33
2019-04-27T19:34:23.043Z,70.86
2019-04-27T19:36:59.281Z,69.46
2019-04-27T19:39:28.574Z,69.99
2019-04-27T19:42:01.388Z,69.68
2019-04-27T19:44:28.974Z,70.94
2019-04-27T19:46:57.510Z,69.35
2019-04-27T19:49:32.715Z,69.79
2019-04-27T19:52:01.178Z,70.40
2019-04-27T19:54:30.241Z,70.99
2019-04-27T19:57:04.619Z,70.97
2019-04-27T19:59:46.178Z,70.36
2019-04-27T20:02:16.205Z,69.89
2019-04-27T20:04:45.853Z,71.23
2019-04-27T20:07:14.243Z,70.31
2019-04-27T20:09:44.265Z,70.50
2019-04-27T20:12:13.774Z,71.27
2019-04-27T20:14:57.321Z,70.24
2019-04-27T20:17:31.111Z,70.87
2019-04-27T20:19:59.996Z,70.30
2019-04-27T20:22:28.384Z,70.83
2019-04-27T20:24:56.764Z,69.85
2019-04-27T20:27:25.158Z,70.03
2019-04-27T20:29:53.544Z,70.29
2019-04-27T20:32:21.993Z,70.19
2019-04-27T20:34:51.296Z,70.18
2019-04-27T20:37:20.996Z,70.35
2019-04-27T20:39:51.251Z,70.83
2019-04-27T20:42:21.108Z,71.13
2019-04-27T20:44:51.418Z,71.14
2019-04-27T20:47:19.942Z,70.38
2019-04-27T20:49:48.338Z,70.05
2019-04-27T20:52:18.356Z,70.57
2019-04-27T20:54:46.736Z,70.61
2019-04-27T20:57:15.109Z,70.80
2019-04-27T20:59:43.494Z,70.69
2019-04-27T21:02:29.590Z,70.39
2019-04-27T21:05:02.599Z,70.79
2019-04-27T21:07:38.547Z,71.42
2019-04-27T21:10:08.058Z,71.03
2019-04-27T21:12:36.433Z,70.87
2019-04-27T21:15:05.557Z,70.54
2019-04-27T21:17:33.934Z,70.23
2019-04-27T21:20:02.315Z,70.54
2019-04-27T21:22:31.475Z,70.00
2019-04-27T21:25:01.516Z,69.34
2019-04-27T21:27:31.811Z,69.72
2019-04-27T21:30:02.569Z,70.24
2019-04-27T21:32:30.429Z,70.53
2019-04-27T21:34:58.809Z,70.26
2019-04-27T21:37:27.185Z,70.05
2019-04-27T21:40:10.489Z,70.35
2019-04-27T21:42:41.087Z,71.14
2019-04-27T21:45:11.243Z,70.61
2019-04-27T21:47:41.357Z,70.22
2019-04-27T21:50:11.969Z,70.39
2019-04-27T21:52:42.024Z,70.14
2019-04-27T21:55:12.118Z,70.98
2019-04-27T21:57:40.999Z,70.75
2019-04-27T22:00:16.712Z,70.33
2019-04-27T22:02:45.105Z,70.96
2019-04-27T22:05:13.475Z,70.92
2019-04-27T22:07:41.912Z,70.67
2019-04-27T22:10:10.686Z,71.20
2019-04-27T22:12:39.057Z,71.01
2019-04-27T22:15:07.875Z,71.33
2019-04-27T22:17:36.258Z,71.06
2019-04-27T22:20:07.247Z,70.62
2019-04-27T22:22:37.270Z,71.21
2019-04-27T22:25:08.151Z,71.18
2019-04-27T22:27:36.612Z,70.90
2019-04-27T22:30:06.995Z,70.76
2019-04-27T22:32:35.460Z,70.88
2019-04-27T22:35:04.742Z,70.70
2019-04-27T22:37:33.121Z,70.47
2019-04-27T22:40:05.793Z,70.99
2019-04-27T22:42:51.524Z,71.05
2019-04-27T22:45:21.599Z,70.87
2019-04-27T22:47:51.244Z,71.05
2019-04-27T22:50:21.058Z,71.20
2019-04-27T22:52:49.489Z,71.35
2019-04-27T22:55:17.875Z,72.00
2019-04-27T22:57:47.895Z,71.42
2019-04-27T23:00:18.380Z,71.36
2019-04-27T23:02:48.392Z,71.82
2019-04-27T23:05:16.795Z,71.78
2019-04-27T23:07:45.174Z,71.97
2019-04-27T23:10:13.792Z,71.07
2019-04-27T23:12:42.172Z,71.05
2019-04-27T23:15:12.339Z,70.47
2019-04-27T23:17:48.183Z,70.66
2019-04-27T23:20:16.566Z,70.77
2019-04-27T23:22:44.932Z,70.34
2019-04-27T23:25:13.312Z,70.92
2019-04-27T23:27:41.688Z,71.01
2019-04-27T23:30:11.308Z,71.29
2019-04-27T23:32:41.473Z,71.23
2019-04-27T23:35:10.200Z,71.42
2019-04-27T23:37:38.545Z,71.04
2019-04-27T23:40:07.066Z,71.03
2019-04-27T23:42:35.451Z,70.75
2019-04-27T23:45:05.396Z,70.40
2019-04-27T23:47:33.781Z,70.49
2019-04-27T23:50:02.156Z,70.44
2019-04-27T23:52:37.981Z,70.59
2019-04-27T23:55:06.426Z,70.38
2019-04-27T23:57:34.807Z,70.14
